sensor_id;sensor_type;location;lat;lon;timestamp;P1;durP1;ratioP1;P2;durP2;ratioP2
35795;SDS011;21916;52.428;13.302;2023-05-07T00:00:57;23.45;;;16.77;;
35795;SDS011;21916;52.428;13.302;2023-05-07T00:03:24;21.00;;;15.93;;
35795;SDS011;21916;52.428;13.302;2023-05-07T00:05:51;21.50;;;16.38;;
35795;SDS011;21916;52.428;13.302;2023-05-07T00:08:18;24.25;;;17.08;;
35795;SDS011;21916;52.428;13.302;2023-05-07T00:10:44;23.27;;;15.82;;
35795;SDS011;21916;52.428;13.302;2023-05-07T00:13:11;20.25;;;16.55;;
35795;SDS011;21916;52.428;13.302;2023-05-07T00:15:37;22.88;;;17.52;;
35795;SDS011;21916;52.428;13.302;2023-05-07T00:18:03;20.65;;;15.77;;
35795;SDS011;21916;52.428;13.302;2023-05-07T00:20:29;19.00;;;16.10;;
35795;SDS011;21916;52.428;13.302;2023-05-07T00:22:55;23.23;;;16.85;;
35795;SDS011;21916;52.428;13.302;2023-05-07T00:25:21;20.80;;;16.63;;
35795;SDS011;21916;52.428;13.302;2023-05-07T00:27:47;21.17;;;15.82;;
35795;SDS011;21916;52.428;13.302;2023-05-07T00:30:13;19.60;;;15.25;;
35795;SDS011;21916;52.428;13.302;2023-05-07T00:32:39;23.00;;;15.63;;
35795;SDS011;21916;52.428;13.302;2023-05-07T00:35:05;20.70;;;15.38;;
35795;SDS011;21916;52.428;13.302;2023-05-07T00:37:32;18.65;;;15.43;;
35795;SDS011;21916;52.428;13.302;2023-05-07T00:39:58;19.48;;;15.48;;
35795;SDS011;21916;52.428;13.302;2023-05-07T00:42:24;19.25;;;15.50;;
35795;SDS011;21916;52.428;13.302;2023-05-07T00:44:50;21.30;;;14.80;;
35795;SDS011;21916;52.428;13.302;2023-05-07T00:47:19;19.67;;;14.90;;
35795;SDS011;21916;52.428;13.302;2023-05-07T00:49:45;20.95;;;15.27;;
35795;SDS011;21916;52.428;13.302;2023-05-07T00:52:12;20.60;;;14.55;;
35795;SDS011;21916;52.428;13.302;2023-05-07T00:54:41;20.52;;;13.98;;
35795;SDS011;21916;52.428;13.302;2023-05-07T00:57:12;20.38;;;14.50;;
35795;SDS011;21916;52.428;13.302;2023-05-07T00:59:38;16.20;;;13.10;;
35795;SDS011;21916;52.428;13.302;2023-05-07T01:02:06;14.75;;;11.68;;
35795;SDS011;21916;52.428;13.302;2023-05-07T01:04:33;15.18;;;12.32;;
35795;SDS011;21916;52.428;13.302;2023-05-07T01:06:59;15.00;;;11.13;;
35795;SDS011;21916;52.428;13.302;2023-05-07T01:09:26;15.90;;;11.90;;
35795;SDS011;21916;52.428;13.302;2023-05-07T01:11:53;18.92;;;11.13;;
35795;SDS011;21916;52.428;13.302;2023-05-07T01:14:22;13.32;;;10.05;;
35795;SDS011;21916;52.428;13.302;2023-05-07T01:16:49;11.73;;;10.00;;
35795;SDS011;21916;52.428;13.302;2023-05-07T01:19:17;13.70;;;10.13;;
35795;SDS011;21916;52.428;13.302;2023-05-07T01:21:45;12.55;;;9.60;;
35795;SDS011;21916;52.428;13.302;2023-05-07T01:24:14;11.82;;;9.50;;
35795;SDS011;21916;52.428;13.302;2023-05-07T01:26:41;12.90;;;9.52;;
35795;SDS011;21916;52.428;13.302;2023-05-07T01:29:08;12.23;;;10.00;;
35795;SDS011;21916;52.428;13.302;2023-05-07T01:31:37;12.65;;;9.38;;
35795;SDS011;21916;52.428;13.302;2023-05-07T01:34:05;13.80;;;11.13;;
35795;SDS011;21916;52.428;13.302;2023-05-07T01:36:33;16.00;;;10.52;;
35795;SDS011;21916;52.428;13.302;2023-05-07T01:39:00;13.25;;;10.13;;
35795;SDS011;21916;52.428;13.302;2023-05-07T01:41:27;12.95;;;11.05;;
35795;SDS011;21916;52.428;13.302;2023-05-07T01:43:54;12.35;;;9.52;;
35795;SDS011;21916;52.428;13.302;2023-05-07T01:46:23;14.63;;;10.63;;
35795;SDS011;21916;52.428;13.302;2023-05-07T01:48:50;16.10;;;10.85;;
35795;SDS011;21916;52.428;13.302;2023-05-07T01:51:16;15.23;;;10.23;;
35795;SDS011;21916;52.428;13.302;2023-05-07T01:53:43;13.63;;;10.93;;
35795;SDS011;21916;52.428;13.302;2023-05-07T01:56:11;14.57;;;10.88;;
35795;SDS011;21916;52.428;13.302;2023-05-07T01:58:39;15.85;;;11.98;;
35795;SDS011;21916;52.428;13.302;2023-05-07T02:01:05;17.60;;;12.68;;
35795;SDS011;21916;52.428;13.302;2023-05-07T02:03:31;15.98;;;12.27;;
35795;SDS011;21916;52.428;13.302;2023-05-07T02:06:04;16.13;;;12.38;;
35795;SDS011;21916;52.428;13.302;2023-05-07T02:08:33;16.92;;;13.15;;
35795;SDS011;21916;52.428;13.302;2023-05-07T02:10:59;15.93;;;11.77;;
35795;SDS011;21916;52.428;13.302;2023-05-07T02:13:28;20.67;;;12.88;;
35795;SDS011;21916;52.428;13.302;2023-05-07T02:15:55;14.85;;;11.95;;
35795;SDS011;21916;52.428;13.302;2023-05-07T02:18:23;15.18;;;12.77;;
35795;SDS011;21916;52.428;13.302;2023-05-07T02:20:49;17.15;;;11.73;;
35795;SDS011;21916;52.428;13.302;2023-05-07T02:23:15;16.63;;;12.80;;
35795;SDS011;21916;52.428;13.302;2023-05-07T02:25:41;15.85;;;11.63;;
35795;SDS011;21916;52.428;13.302;2023-05-07T02:28:06;16.27;;;12.38;;
35795;SDS011;21916;52.428;13.302;2023-05-07T02:30:41;21.83;;;12.70;;
35795;SDS011;21916;52.428;13.302;2023-05-07T02:33:08;23.13;;;13.43;;
35795;SDS011;21916;52.428;13.302;2023-05-07T02:35:34;14.05;;;11.52;;
35795;SDS011;21916;52.428;13.302;2023-05-07T02:38:00;13.95;;;11.60;;
35795;SDS011;21916;52.428;13.302;2023-05-07T02:40:26;13.90;;;11.52;;
35795;SDS011;21916;52.428;13.302;2023-05-07T02:42:52;18.73;;;11.63;;
35795;SDS011;21916;52.428;13.302;2023-05-07T02:45:18;15.80;;;12.35;;
35795;SDS011;21916;52.428;13.302;2023-05-07T02:47:44;14.57;;;11.65;;
35795;SDS011;21916;52.428;13.302;2023-05-07T02:50:11;17.80;;;12.57;;
35795;SDS011;21916;52.428;13.302;2023-05-07T02:52:38;14.88;;;12.15;;
35795;SDS011;21916;52.428;13.302;2023-05-07T02:55:04;16.80;;;10.82;;
35795;SDS011;21916;52.428;13.302;2023-05-07T02:57:33;15.25;;;10.95;;
35795;SDS011;21916;52.428;13.302;2023-05-07T03:00:06;13.70;;;10.75;;
35795;SDS011;21916;52.428;13.302;2023-05-07T03:02:54;15.82;;;11.88;;
35795;SDS011;21916;52.428;13.302;2023-05-07T03:05:21;14.32;;;10.93;;
35795;SDS011;21916;52.428;13.302;2023-05-07T03:07:47;16.77;;;12.77;;
35795;SDS011;21916;52.428;13.302;2023-05-07T03:10:13;14.00;;;10.65;;
35795;SDS011;21916;52.428;13.302;2023-05-07T03:12:40;14.45;;;10.40;;
35795;SDS011;21916;52.428;13.302;2023-05-07T03:15:06;13.98;;;11.10;;
35795;SDS011;21916;52.428;13.302;2023-05-07T03:17:33;14.68;;;11.38;;
35795;SDS011;21916;52.428;13.302;2023-05-07T03:19:59;13.60;;;10.48;;
35795;SDS011;21916;52.428;13.302;2023-05-07T03:22:25;14.18;;;10.45;;
35795;SDS011;21916;52.428;13.302;2023-05-07T03:24:51;13.73;;;10.68;;
35795;SDS011;21916;52.428;13.302;2023-05-07T03:27:18;15.88;;;10.35;;
35795;SDS011;21916;52.428;13.302;2023-05-07T03:29:45;14.50;;;11.30;;
35795;SDS011;21916;52.428;13.302;2023-05-07T03:32:11;13.35;;;10.15;;
35795;SDS011;21916;52.428;13.302;2023-05-07T03:34:37;13.05;;;11.05;;
35795;SDS011;21916;52.428;13.302;2023-05-07T03:37:03;15.05;;;10.93;;
35795;SDS011;21916;52.428;13.302;2023-05-07T03:39:29;15.27;;;10.32;;
35795;SDS011;21916;52.428;13.302;2023-05-07T03:41:55;16.02;;;10.75;;
35795;SDS011;21916;52.428;13.302;2023-05-07T03:44:24;16.45;;;11.85;;
35795;SDS011;21916;52.428;13.302;2023-05-07T03:46:51;16.33;;;10.75;;
35795;SDS011;21916;52.428;13.302;2023-05-07T03:49:17;14.95;;;11.18;;
35795;SDS011;21916;52.428;13.302;2023-05-07T03:51:43;16.02;;;11.45;;
35795;SDS011;21916;52.428;13.302;2023-05-07T03:54:09;14.95;;;11.75;;
35795;SDS011;21916;52.428;13.302;2023-05-07T03:56:40;14.98;;;11.25;;
35795;SDS011;21916;52.428;13.302;2023-05-07T03:59:06;15.75;;;11.98;;
35795;SDS011;21916;52.428;13.302;2023-05-07T04:01:32;15.40;;;11.88;;
35795;SDS011;21916;52.428;13.302;2023-05-07T04:03:59;15.52;;;11.63;;
35795;SDS011;21916;52.428;13.302;2023-05-07T04:06:25;15.75;;;11.43;;
35795;SDS011;21916;52.428;13.302;2023-05-07T04:08:52;14.68;;;11.60;;
35795;SDS011;21916;52.428;13.302;2023-05-07T04:11:18;14.25;;;12.00;;
35795;SDS011;21916;52.428;13.302;2023-05-07T04:13:44;18.10;;;11.57;;
35795;SDS011;21916;52.428;13.302;2023-05-07T04:16:10;19.20;;;12.65;;
35795;SDS011;21916;52.428;13.302;2023-05-07T04:18:37;17.27;;;12.25;;
35795;SDS011;21916;52.428;13.302;2023-05-07T04:21:04;21.13;;;13.35;;
35795;SDS011;21916;52.428;13.302;2023-05-07T04:23:30;17.70;;;13.50;;
35795;SDS011;21916;52.428;13.302;2023-05-07T04:25:59;17.52;;;12.65;;
35795;SDS011;21916;52.428;13.302;2023-05-07T04:28:32;15.48;;;12.90;;
35795;SDS011;21916;52.428;13.302;2023-05-07T04:30:58;18.83;;;12.98;;
35795;SDS011;21916;52.428;13.302;2023-05-07T04:33:24;18.88;;;13.15;;
35795;SDS011;21916;52.428;13.302;2023-05-07T04:35:51;15.52;;;11.68;;
35795;SDS011;21916;52.428;13.302;2023-05-07T04:38:17;16.77;;;12.80;;
35795;SDS011;21916;52.428;13.302;2023-05-07T04:40:44;16.60;;;11.57;;
35795;SDS011;21916;52.428;13.302;2023-05-07T04:43:14;18.00;;;11.55;;
35795;SDS011;21916;52.428;13.302;2023-05-07T04:45:46;17.00;;;10.75;;
35795;SDS011;21916;52.428;13.302;2023-05-07T04:48:12;14.13;;;10.88;;
35795;SDS011;21916;52.428;13.302;2023-05-07T04:50:40;14.48;;;10.35;;
35795;SDS011;21916;52.428;13.302;2023-05-07T04:53:07;11.10;;;9.27;;
35795;SDS011;21916;52.428;13.302;2023-05-07T04:55:33;13.52;;;10.30;;
35795;SDS011;21916;52.428;13.302;2023-05-07T04:58:00;13.48;;;10.35;;
35795;SDS011;21916;52.428;13.302;2023-05-07T05:00:28;13.18;;;9.82;;
35795;SDS011;21916;52.428;13.302;2023-05-07T05:02:55;13.32;;;9.75;;
35795;SDS011;21916;52.428;13.302;2023-05-07T05:05:21;11.35;;;8.88;;
35795;SDS011;21916;52.428;13.302;2023-05-07T05:07:51;12.38;;;9.57;;
35795;SDS011;21916;52.428;13.302;2023-05-07T05:10:17;12.57;;;9.32;;
35795;SDS011;21916;52.428;13.302;2023-05-07T05:12:44;13.60;;;9.82;;
35795;SDS011;21916;52.428;13.302;2023-05-07T05:15:11;10.95;;;8.63;;
35795;SDS011;21916;52.428;13.302;2023-05-07T05:17:38;13.48;;;9.55;;
35795;SDS011;21916;52.428;13.302;2023-05-07T05:20:05;10.32;;;8.63;;
35795;SDS011;21916;52.428;13.302;2023-05-07T05:22:32;12.20;;;9.25;;
35795;SDS011;21916;52.428;13.302;2023-05-07T05:24:59;13.65;;;9.73;;
35795;SDS011;21916;52.428;13.302;2023-05-07T05:27:26;12.43;;;9.80;;
35795;SDS011;21916;52.428;13.302;2023-05-07T05:29:52;14.45;;;8.88;;
35795;SDS011;21916;52.428;13.302;2023-05-07T05:32:17;13.48;;;8.55;;
35795;SDS011;21916;52.428;13.302;2023-05-07T05:34:44;12.23;;;8.38;;
35795;SDS011;21916;52.428;13.302;2023-05-07T05:37:10;10.80;;;7.40;;
35795;SDS011;21916;52.428;13.302;2023-05-07T05:39:36;10.38;;;7.43;;
35795;SDS011;21916;52.428;13.302;2023-05-07T05:42:02;11.80;;;7.78;;
35795;SDS011;21916;52.428;13.302;2023-05-07T05:44:29;9.88;;;7.53;;
35795;SDS011;21916;52.428;13.302;2023-05-07T05:46:57;9.35;;;7.22;;
35795;SDS011;21916;52.428;13.302;2023-05-07T05:49:25;9.48;;;6.82;;
35795;SDS011;21916;52.428;13.302;2023-05-07T05:51:51;10.82;;;7.32;;
35795;SDS011;21916;52.428;13.302;2023-05-07T05:54:17;10.13;;;6.55;;
35795;SDS011;21916;52.428;13.302;2023-05-07T05:56:43;9.77;;;6.53;;
35795;SDS011;21916;52.428;13.302;2023-05-07T05:59:09;9.20;;;6.03;;
35795;SDS011;21916;52.428;13.302;2023-05-07T06:01:36;7.28;;;5.95;;
35795;SDS011;21916;52.428;13.302;2023-05-07T06:04:03;7.25;;;5.65;;
35795;SDS011;21916;52.428;13.302;2023-05-07T06:06:29;8.57;;;6.07;;
35795;SDS011;21916;52.428;13.302;2023-05-07T06:08:57;8.52;;;6.30;;
35795;SDS011;21916;52.428;13.302;2023-05-07T06:11:28;7.38;;;5.63;;
35795;SDS011;21916;52.428;13.302;2023-05-07T06:13:54;9.57;;;5.90;;
35795;SDS011;21916;52.428;13.302;2023-05-07T06:16:20;7.95;;;5.85;;
35795;SDS011;21916;52.428;13.302;2023-05-07T06:18:47;8.05;;;6.18;;
35795;SDS011;21916;52.428;13.302;2023-05-07T06:21:14;7.20;;;5.75;;
35795;SDS011;21916;52.428;13.302;2023-05-07T06:23:40;7.07;;;5.53;;
35795;SDS011;21916;52.428;13.302;2023-05-07T06:26:06;8.98;;;5.88;;
35795;SDS011;21916;52.428;13.302;2023-05-07T06:28:37;8.18;;;5.55;;
35795;SDS011;21916;52.428;13.302;2023-05-07T06:31:11;7.07;;;5.82;;
35795;SDS011;21916;52.428;13.302;2023-05-07T06:33:37;9.38;;;5.63;;
35795;SDS011;21916;52.428;13.302;2023-05-07T06:36:04;7.00;;;5.65;;
35795;SDS011;21916;52.428;13.302;2023-05-07T06:38:31;6.97;;;5.68;;
35795;SDS011;21916;52.428;13.302;2023-05-07T06:40:57;7.45;;;5.55;;
35795;SDS011;21916;52.428;13.302;2023-05-07T06:43:23;8.73;;;5.97;;
35795;SDS011;21916;52.428;13.302;2023-05-07T06:46:12;8.05;;;5.40;;
35795;SDS011;21916;52.428;13.302;2023-05-07T06:48:38;8.20;;;5.55;;
35795;SDS011;21916;52.428;13.302;2023-05-07T06:51:05;7.40;;;5.53;;
35795;SDS011;21916;52.428;13.302;2023-05-07T06:53:31;8.88;;;5.50;;
35795;SDS011;21916;52.428;13.302;2023-05-07T06:55:59;9.07;;;6.55;;
35795;SDS011;21916;52.428;13.302;2023-05-07T06:58:25;7.70;;;5.38;;
35795;SDS011;21916;52.428;13.302;2023-05-07T07:00:51;6.93;;;5.45;;
35795;SDS011;21916;52.428;13.302;2023-05-07T07:03:17;8.10;;;6.38;;
35795;SDS011;21916;52.428;13.302;2023-05-07T07:05:44;7.22;;;5.90;;
35795;SDS011;21916;52.428;13.302;2023-05-07T07:08:10;8.15;;;5.70;;
35795;SDS011;21916;52.428;13.302;2023-05-07T07:10:36;8.48;;;5.43;;
35795;SDS011;21916;52.428;13.302;2023-05-07T07:13:02;9.48;;;5.82;;
35795;SDS011;21916;52.428;13.302;2023-05-07T07:15:28;7.70;;;5.82;;
35795;SDS011;21916;52.428;13.302;2023-05-07T07:17:55;8.10;;;6.05;;
35795;SDS011;21916;52.428;13.302;2023-05-07T07:20:22;9.00;;;6.15;;
35795;SDS011;21916;52.428;13.302;2023-05-07T07:22:48;9.15;;;6.35;;
35795;SDS011;21916;52.428;13.302;2023-05-07T07:25:15;7.20;;;6.30;;
35795;SDS011;21916;52.428;13.302;2023-05-07T07:27:42;9.80;;;6.00;;
35795;SDS011;21916;52.428;13.302;2023-05-07T07:30:08;7.15;;;5.68;;
35795;SDS011;21916;52.428;13.302;2023-05-07T07:32:37;7.57;;;5.93;;
35795;SDS011;21916;52.428;13.302;2023-05-07T07:35:03;8.82;;;5.47;;
35795;SDS011;21916;52.428;13.302;2023-05-07T07:37:30;7.32;;;5.97;;
35795;SDS011;21916;52.428;13.302;2023-05-07T07:39:56;9.30;;;5.65;;
35795;SDS011;21916;52.428;13.302;2023-05-07T07:42:23;6.30;;;4.82;;
35795;SDS011;21916;52.428;13.302;2023-05-07T07:44:49;5.20;;;4.63;;
35795;SDS011;21916;52.428;13.302;2023-05-07T07:47:18;8.43;;;4.78;;
35795;SDS011;21916;52.428;13.302;2023-05-07T07:49:46;8.23;;;5.13;;
35795;SDS011;21916;52.428;13.302;2023-05-07T07:52:12;7.65;;;4.93;;
35795;SDS011;21916;52.428;13.302;2023-05-07T07:54:38;7.30;;;4.60;;
35795;SDS011;21916;52.428;13.302;2023-05-07T07:57:06;8.75;;;4.78;;
35795;SDS011;21916;52.428;13.302;2023-05-07T07:59:33;9.30;;;4.80;;
35795;SDS011;21916;52.428;13.302;2023-05-07T08:01:59;5.65;;;4.57;;
35795;SDS011;21916;52.428;13.302;2023-05-07T08:04:27;6.97;;;4.47;;
35795;SDS011;21916;52.428;13.302;2023-05-07T08:06:55;6.00;;;4.00;;
35795;SDS011;21916;52.428;13.302;2023-05-07T08:09:21;6.68;;;3.88;;
35795;SDS011;21916;52.428;13.302;2023-05-07T08:11:49;6.15;;;3.20;;
35795;SDS011;21916;52.428;13.302;2023-05-07T08:14:16;5.75;;;3.58;;
35795;SDS011;21916;52.428;13.302;2023-05-07T08:16:45;6.25;;;3.63;;
35795;SDS011;21916;52.428;13.302;2023-05-07T08:19:11;4.82;;;3.33;;
35795;SDS011;21916;52.428;13.302;2023-05-07T08:21:40;6.20;;;3.38;;
35795;SDS011;21916;52.428;13.302;2023-05-07T08:24:07;5.30;;;3.08;;
35795;SDS011;21916;52.428;13.302;2023-05-07T08:26:34;5.60;;;3.58;;
35795;SDS011;21916;52.428;13.302;2023-05-07T08:29:01;4.22;;;3.17;;
35795;SDS011;21916;52.428;13.302;2023-05-07T08:31:27;4.10;;;3.38;;
35795;SDS011;21916;52.428;13.302;2023-05-07T08:33:55;7.35;;;3.30;;
35795;SDS011;21916;52.428;13.302;2023-05-07T08:36:21;4.80;;;3.10;;
35795;SDS011;21916;52.428;13.302;2023-05-07T08:38:47;5.53;;;3.03;;
35795;SDS011;21916;52.428;13.302;2023-05-07T08:41:13;5.32;;;3.00;;
35795;SDS011;21916;52.428;13.302;2023-05-07T08:43:41;4.88;;;3.13;;
35795;SDS011;21916;52.428;13.302;2023-05-07T08:46:11;4.60;;;3.30;;
35795;SDS011;21916;52.428;13.302;2023-05-07T08:48:42;5.75;;;3.42;;
35795;SDS011;21916;52.428;13.302;2023-05-07T08:51:12;5.35;;;2.83;;
35795;SDS011;21916;52.428;13.302;2023-05-07T08:53:40;4.63;;;3.15;;
35795;SDS011;21916;52.428;13.302;2023-05-07T08:56:10;3.28;;;2.97;;
35795;SDS011;21916;52.428;13.302;2023-05-07T08:58:37;4.40;;;2.95;;
35795;SDS011;21916;52.428;13.302;2023-05-07T09:01:07;4.07;;;3.25;;
35795;SDS011;21916;52.428;13.302;2023-05-07T09:03:37;7.50;;;3.43;;
35795;SDS011;21916;52.428;13.302;2023-05-07T09:06:05;5.45;;;3.03;;
35795;SDS011;21916;52.428;13.302;2023-05-07T09:08:34;3.85;;;2.78;;
35795;SDS011;21916;52.428;13.302;2023-05-07T09:11:02;3.80;;;2.42;;
35795;SDS011;21916;52.428;13.302;2023-05-07T09:13:29;4.15;;;2.45;;
35795;SDS011;21916;52.428;13.302;2023-05-07T09:15:56;3.88;;;2.47;;
35795;SDS011;21916;52.428;13.302;2023-05-07T09:18:24;5.10;;;2.85;;
35795;SDS011;21916;52.428;13.302;2023-05-07T09:20:51;5.63;;;2.28;;
35795;SDS011;21916;52.428;13.302;2023-05-07T09:23:19;3.40;;;2.38;;
35795;SDS011;21916;52.428;13.302;2023-05-07T09:25:46;3.95;;;2.00;;
35795;SDS011;21916;52.428;13.302;2023-05-07T09:28:19;2.67;;;2.20;;
35795;SDS011;21916;52.428;13.302;2023-05-07T09:30:45;2.13;;;1.70;;
35795;SDS011;21916;52.428;13.302;2023-05-07T09:33:13;3.22;;;2.13;;
35795;SDS011;21916;52.428;13.302;2023-05-07T09:35:42;2.90;;;1.90;;
35795;SDS011;21916;52.428;13.302;2023-05-07T09:38:13;5.55;;;2.25;;
35795;SDS011;21916;52.428;13.302;2023-05-07T09:40:40;2.55;;;1.80;;
35795;SDS011;21916;52.428;13.302;2023-05-07T09:43:11;2.40;;;1.85;;
35795;SDS011;21916;52.428;13.302;2023-05-07T09:45:42;3.10;;;2.00;;
35795;SDS011;21916;52.428;13.302;2023-05-07T09:48:10;4.13;;;1.95;;
35795;SDS011;21916;52.428;13.302;2023-05-07T09:50:42;2.25;;;1.75;;
35795;SDS011;21916;52.428;13.302;2023-05-07T09:53:25;3.28;;;2.10;;
35795;SDS011;21916;52.428;13.302;2023-05-07T09:55:54;3.47;;;1.90;;
35795;SDS011;21916;52.428;13.302;2023-05-07T09:58:22;2.38;;;1.67;;
35795;SDS011;21916;52.428;13.302;2023-05-07T10:00:49;2.55;;;1.60;;
35795;SDS011;21916;52.428;13.302;2023-05-07T10:03:16;3.13;;;1.88;;
35795;SDS011;21916;52.428;13.302;2023-05-07T10:05:52;6.13;;;1.70;;
35795;SDS011;21916;52.428;13.302;2023-05-07T10:08:21;2.88;;;1.95;;
35795;SDS011;21916;52.428;13.302;2023-05-07T10:10:49;2.22;;;1.83;;
35795;SDS011;21916;52.428;13.302;2023-05-07T10:13:20;3.92;;;1.92;;
35795;SDS011;21916;52.428;13.302;2023-05-07T10:15:49;3.08;;;2.22;;
35795;SDS011;21916;52.428;13.302;2023-05-07T10:18:18;3.00;;;1.92;;
35795;SDS011;21916;52.428;13.302;2023-05-07T10:20:49;2.50;;;1.80;;
35795;SDS011;21916;52.428;13.302;2023-05-07T10:23:19;3.00;;;1.98;;
35795;SDS011;21916;52.428;13.302;2023-05-07T10:25:52;2.85;;;2.00;;
35795;SDS011;21916;52.428;13.302;2023-05-07T10:28:21;1.90;;;1.58;;
35795;SDS011;21916;52.428;13.302;2023-05-07T10:30:56;2.00;;;1.80;;
35795;SDS011;21916;52.428;13.302;2023-05-07T10:33:29;2.40;;;1.65;;
35795;SDS011;21916;52.428;13.302;2023-05-07T10:35:58;4.70;;;2.05;;
35795;SDS011;21916;52.428;13.302;2023-05-07T10:38:28;4.05;;;1.85;;
35795;SDS011;21916;52.428;13.302;2023-05-07T10:40:55;3.72;;;1.95;;
35795;SDS011;21916;52.428;13.302;2023-05-07T10:43:21;3.92;;;1.90;;
35795;SDS011;21916;52.428;13.302;2023-05-07T10:51:39;2.03;;;1.48;;
35795;SDS011;21916;52.428;13.302;2023-05-07T10:56:47;2.30;;;1.60;;
35795;SDS011;21916;52.428;13.302;2023-05-07T11:01:49;3.38;;;1.52;;
35795;SDS011;21916;52.428;13.302;2023-05-07T11:04:16;2.83;;;1.58;;
35795;SDS011;21916;52.428;13.302;2023-05-07T11:15:45;2.38;;;1.73;;
35795;SDS011;21916;52.428;13.302;2023-05-07T11:17:59;3.60;;;1.65;;
35795;SDS011;21916;52.428;13.302;2023-05-07T11:20:47;5.30;;;1.80;;
35795;SDS011;21916;52.428;13.302;2023-05-07T11:26:29;2.17;;;1.63;;
35795;SDS011;21916;52.428;13.302;2023-05-07T11:29:10;1.40;;;1.27;;
35795;SDS011;21916;52.428;13.302;2023-05-07T11:31:50;2.15;;;1.30;;
35795;SDS011;21916;52.428;13.302;2023-05-07T11:34:25;3.35;;;1.40;;
35795;SDS011;21916;52.428;13.302;2023-05-07T11:36:53;1.67;;;1.50;;
35795;SDS011;21916;52.428;13.302;2023-05-07T11:39:32;3.28;;;1.42;;
35795;SDS011;21916;52.428;13.302;2023-05-07T11:41:59;1.92;;;1.58;;
35795;SDS011;21916;52.428;13.302;2023-05-07T11:44:25;1.63;;;1.00;;
35795;SDS011;21916;52.428;13.302;2023-05-07T11:47:11;5.38;;;1.50;;
35795;SDS011;21916;52.428;13.302;2023-05-07T11:49:42;1.27;;;1.17;;
35795;SDS011;21916;52.428;13.302;2023-05-07T11:52:08;2.58;;;1.40;;
35795;SDS011;21916;52.428;13.302;2023-05-07T11:54:37;1.95;;;1.20;;
35795;SDS011;21916;52.428;13.302;2023-05-07T11:57:03;1.63;;;1.25;;
35795;SDS011;21916;52.428;13.302;2023-05-07T11:59:29;1.77;;;1.40;;
35795;SDS011;21916;52.428;13.302;2023-05-07T12:01:57;1.77;;;1.20;;
35795;SDS011;21916;52.428;13.302;2023-05-07T12:04:24;1.42;;;1.20;;
35795;SDS011;21916;52.428;13.302;2023-05-07T12:06:53;1.77;;;1.02;;
35795;SDS011;21916;52.428;13.302;2023-05-07T12:09:20;2.22;;;1.30;;
35795;SDS011;21916;52.428;13.302;2023-05-07T12:11:46;2.00;;;1.10;;
35795;SDS011;21916;52.428;13.302;2023-05-07T12:14:13;1.75;;;1.20;;
35795;SDS011;21916;52.428;13.302;2023-05-07T12:16:40;2.65;;;1.30;;
35795;SDS011;21916;52.428;13.302;2023-05-07T12:19:08;1.67;;;1.15;;
35795;SDS011;21916;52.428;13.302;2023-05-07T12:21:37;1.73;;;1.27;;
35795;SDS011;21916;52.428;13.302;2023-05-07T12:24:04;1.70;;;1.20;;
35795;SDS011;21916;52.428;13.302;2023-05-07T12:26:31;2.00;;;1.40;;
35795;SDS011;21916;52.428;13.302;2023-05-07T12:28:57;1.60;;;1.20;;
35795;SDS011;21916;52.428;13.302;2023-05-07T12:31:25;3.08;;;1.13;;
35795;SDS011;21916;52.428;13.302;2023-05-07T12:33:51;2.90;;;1.20;;
35795;SDS011;21916;52.428;13.302;2023-05-07T12:36:17;3.45;;;1.70;;
35795;SDS011;21916;52.428;13.302;2023-05-07T12:38:43;1.20;;;1.10;;
35795;SDS011;21916;52.428;13.302;2023-05-07T12:41:10;2.08;;;1.35;;
35795;SDS011;21916;52.428;13.302;2023-05-07T12:43:37;2.47;;;1.80;;
35795;SDS011;21916;52.428;13.302;2023-05-07T12:46:04;2.47;;;1.45;;
35795;SDS011;21916;52.428;13.302;2023-05-07T12:48:31;1.88;;;1.33;;
35795;SDS011;21916;52.428;13.302;2023-05-07T12:50:58;1.30;;;1.20;;
35795;SDS011;21916;52.428;13.302;2023-05-07T12:53:26;1.98;;;1.10;;
35795;SDS011;21916;52.428;13.302;2023-05-07T12:55:54;2.45;;;1.20;;
35795;SDS011;21916;52.428;13.302;2023-05-07T12:58:24;6.32;;;1.30;;
35795;SDS011;21916;52.428;13.302;2023-05-07T13:00:50;1.88;;;1.25;;
35795;SDS011;21916;52.428;13.302;2023-05-07T13:05:54;2.20;;;1.60;;
35795;SDS011;21916;52.428;13.302;2023-05-07T13:08:28;2.45;;;1.42;;
35795;SDS011;21916;52.428;13.302;2023-05-07T13:11:00;2.20;;;1.30;;
35795;SDS011;21916;52.428;13.302;2023-05-07T13:13:30;2.95;;;1.23;;
35795;SDS011;21916;52.428;13.302;2023-05-07T13:15:57;2.05;;;1.30;;
35795;SDS011;21916;52.428;13.302;2023-05-07T13:18:24;2.83;;;1.05;;
35795;SDS011;21916;52.428;13.302;2023-05-07T13:20:51;1.75;;;1.20;;
35795;SDS011;21916;52.428;13.302;2023-05-07T13:23:17;1.73;;;1.27;;
35795;SDS011;21916;52.428;13.302;2023-05-07T13:25:44;1.25;;;1.10;;
35795;SDS011;21916;52.428;13.302;2023-05-07T13:28:09;1.27;;;1.00;;
35795;SDS011;21916;52.428;13.302;2023-05-07T13:30:36;2.88;;;1.30;;
35795;SDS011;21916;52.428;13.302;2023-05-07T13:33:02;1.60;;;1.08;;
35795;SDS011;21916;52.428;13.302;2023-05-07T13:35:28;2.10;;;1.30;;
35795;SDS011;21916;52.428;13.302;2023-05-07T13:37:54;1.52;;;1.40;;
35795;SDS011;21916;52.428;13.302;2023-05-07T13:40:20;1.40;;;1.20;;
35795;SDS011;21916;52.428;13.302;2023-05-07T13:42:47;1.30;;;1.20;;
35795;SDS011;21916;52.428;13.302;2023-05-07T13:45:13;2.28;;;1.05;;
35795;SDS011;21916;52.428;13.302;2023-05-07T13:47:40;1.60;;;1.02;;
35795;SDS011;21916;52.428;13.302;2023-05-07T13:50:07;1.67;;;1.20;;
35795;SDS011;21916;52.428;13.302;2023-05-07T13:52:34;3.17;;;1.25;;
35795;SDS011;21916;52.428;13.302;2023-05-07T13:55:00;2.45;;;1.30;;
35795;SDS011;21916;52.428;13.302;2023-05-07T13:57:26;2.70;;;1.20;;
35795;SDS011;21916;52.428;13.302;2023-05-07T13:59:52;2.60;;;1.55;;
35795;SDS011;21916;52.428;13.302;2023-05-07T14:02:18;1.73;;;1.20;;
35795;SDS011;21916;52.428;13.302;2023-05-07T14:04:44;2.45;;;1.20;;
35795;SDS011;21916;52.428;13.302;2023-05-07T14:07:10;2.55;;;1.30;;
35795;SDS011;21916;52.428;13.302;2023-05-07T14:09:36;3.00;;;1.35;;
35795;SDS011;21916;52.428;13.302;2023-05-07T14:12:03;1.92;;;1.40;;
35795;SDS011;21916;52.428;13.302;2023-05-07T14:14:29;2.47;;;1.30;;
35795;SDS011;21916;52.428;13.302;2023-05-07T14:16:55;2.40;;;1.15;;
35795;SDS011;21916;52.428;13.302;2023-05-07T14:19:21;1.35;;;1.20;;
35795;SDS011;21916;52.428;13.302;2023-05-07T14:21:48;1.90;;;1.15;;
35795;SDS011;21916;52.428;13.302;2023-05-07T14:24:14;2.65;;;1.17;;
35795;SDS011;21916;52.428;13.302;2023-05-07T14:26:40;2.90;;;1.10;;
35795;SDS011;21916;52.428;13.302;2023-05-07T14:29:05;2.78;;;1.30;;
35795;SDS011;21916;52.428;13.302;2023-05-07T14:31:31;1.67;;;1.20;;
35795;SDS011;21916;52.428;13.302;2023-05-07T14:33:58;1.92;;;1.30;;
35795;SDS011;21916;52.428;13.302;2023-05-07T14:36:24;2.20;;;1.38;;
35795;SDS011;21916;52.428;13.302;2023-05-07T14:38:51;2.95;;;1.13;;
35795;SDS011;21916;52.428;13.302;2023-05-07T14:41:21;1.67;;;1.15;;
35795;SDS011;21916;52.428;13.302;2023-05-07T14:43:47;2.38;;;1.10;;
35795;SDS011;21916;52.428;13.302;2023-05-07T14:46:17;1.88;;;1.60;;
35795;SDS011;21916;52.428;13.302;2023-05-07T14:48:44;2.95;;;1.80;;
35795;SDS011;21916;52.428;13.302;2023-05-07T14:51:11;3.70;;;2.00;;
35795;SDS011;21916;52.428;13.302;2023-05-07T14:53:38;4.97;;;2.13;;